This is the latest recevied weather packets stored in our database for station/object WP3OF-5. If no packets are shown the sender has not sent any weather packets the latest 10 day(s).
| Time | Temp. | Humidity | Pressure | Rain* | Wind** | Luminosity | Snow |
|---|---|---|---|---|---|---|---|
| 1777838351 | 30.56° C | 69% | 1015.2 hPa | 0 mm | - | - | - |
| 1777838048 | 30.56° C | 70% | 1015.2 hPa | 0 mm | - | - | - |
| 1777837745 | 30° C | 71% | 1015 hPa | 0 mm | - | - | - |
| 1777837441 | 30.56° C | 71% | 1015.3 hPa | 0 mm | - | - | - |
| 1777837137 | 30° C | 72% | 1015.1 hPa | 0 mm | - | - | - |
| 1777836833 | 30° C | 72% | 1015.4 hPa | 0 mm | - | - | - |
| 1777836529 | 29.44° C | 73% | 1015.4 hPa | 0 mm | - | - | - |
| 1777836225 | 30.56° C | 70% | 1015.5 hPa | 0 mm | - | - | - |
| 1777835921 | 31.67° C | 66% | 1015.3 hPa | 0 mm | - | - | - |
| 1777835618 | 30.56° C | 70% | 1015.5 hPa | 0 mm | - | - | - |
| 1777835315 | 30.56° C | 71% | 1015.9 hPa | 0 mm | - | - | - |
| 1777835012 | 30° C | 72% | 1015.8 hPa | 0 mm | - | - | - |
| 1777834709 | 29.44° C | 73% | 1015.7 hPa | 0 mm | - | - | - |
| 1777834406 | 28.89° C | 74% | 1015.8 hPa | 0 mm | - | - | - |
| 1777834105 | 28.33° C | 76% | 1015.5 hPa | 0 mm | - | - | - |
| 1777833802 | 28.33° C | 76% | 1015.8 hPa | 0 mm | - | - | - |
| 1777833497 | 28.89° C | 76% | 1016.2 hPa | 0 mm | - | - | - |
| 1777833195 | 28.89° C | 75% | 1016.1 hPa | 0 mm | - | - | - |
| 1777832892 | 28.89° C | 74% | 1016 hPa | 0 mm | - | - | - |
| 1777832591 | 28.89° C | 74% | 1016.1 hPa | 0 mm | - | - | - |
| 1777832288 | 29.44° C | 73% | 1016.1 hPa | 0 mm | - | - | - |
| 1777831985 | 30° C | 72% | 1015.9 hPa | 0 mm | - | - | - |
| 1777831681 | 30° C | 71% | 1016 hPa | 0 mm | - | - | - |
| 1777831380 | 30° C | 72% | 1016.3 hPa | 0 mm | - | - | - |
| 1777831075 | 30° C | 70% | 1016.3 hPa | 0 mm | - | - | - |
* Rain latest hour (hover to see other rain measurements)
** Current wind speed in m/s (hover to see current wind gust speed)